EJU92MK EDDB-LIPZ
Flight info
| Callsign | EJU92MK |
|---|---|
| Flight time | 1h 33m |
| Altitude | 36000 |
| Route | LUROS4N LUROS Y211 BEBKU Z36 MAREM DCT APRAQ/N0433F370 DCT BUDEX DCT TIVAP/N0431F360 DCT GIMIX DCT KUBUD/N0434F370 DCT OSLOP DCT BADOP DCT ROSKA/N0345F190 M859 TULIK DCT BASOG |
| Aircraft | A320/M-SDE2E3FGHIJ1RWXYZ/LB1 |
Departure
| Time | 2026-05-04 11:31 |
|---|---|
| Airport | Berlin Brandenburg Airport (EDDB) |
Arrival
| Time | 2026-05-04 13:04 |
|---|---|
| Airport | Venice Marco Polo Airport (LIPZ) |
| Time | Latitude | Longitude | Altitude | Speed | Heading |
|---|---|---|---|---|---|
| 2026-05-04 10:54 | 52.36156 | 13.51415 | 152 ft | 0 kts | 339° |
| 2026-05-04 11:23 | 52.36151 | 13.51418 | 152 ft | 2 kts | 339° |
| 2026-05-04 11:24 | 52.36068 | 13.51448 | 152 ft | 2 kts | 44° |
| 2026-05-04 11:25 | 52.36062 | 13.51436 | 152 ft | 0 kts | 66° |
| 2026-05-04 11:25 | 52.36060 | 13.51425 | 152 ft | 0 kts | 69° |
| 2026-05-04 11:25 | 52.36059 | 13.51424 | 152 ft | 0 kts | 69° |
| 2026-05-04 11:27 | 52.36060 | 13.51427 | 152 ft | 0 kts | 69° |
| 2026-05-04 11:28 | 52.36066 | 13.51452 | 152 ft | 4 kts | 68° |
| 2026-05-04 11:28 | 52.36081 | 13.51513 | 152 ft | 7 kts | 68° |
| 2026-05-04 11:28 | 52.36103 | 13.51605 | 152 ft | 10 kts | 68° |
| 2026-05-04 11:28 | 52.36131 | 13.51722 | 152 ft | 11 kts | 69° |
| 2026-05-04 11:29 | 52.36110 | 13.51837 | 152 ft | 12 kts | 145° |
| 2026-05-04 11:29 | 52.36091 | 13.51961 | 152 ft | 12 kts | 72° |
| 2026-05-04 11:29 | 52.36103 | 13.52101 | 153 ft | 13 kts | 124° |
| 2026-05-04 11:29 | 52.36019 | 13.52172 | 153 ft | 14 kts | 158° |
| 2026-05-04 11:31 | 52.34531 | 13.46185 | 1406 ft | 167 kts | 264° |
| 2026-05-04 11:33 | 52.28366 | 13.34518 | 5020 ft | 231 kts | 229° |
| 2026-05-04 11:33 | 52.27310 | 13.32611 | 5784 ft | 232 kts | 229° |
| 2026-05-04 11:33 | 52.26234 | 13.30654 | 6537 ft | 234 kts | 229° |
| 2026-05-04 11:34 | 52.25114 | 13.28717 | 7276 ft | 237 kts | 220° |
| 2026-05-04 11:34 | 52.23641 | 13.27624 | 7990 ft | 244 kts | 189° |
| 2026-05-04 11:34 | 52.21941 | 13.27903 | 8739 ft | 254 kts | 161° |
| 2026-05-04 11:34 | 52.20502 | 13.29579 | 9455 ft | 265 kts | 130° |
| 2026-05-04 11:35 | 52.19680 | 13.32255 | 10158 ft | 273 kts | 111° |
| 2026-05-04 11:35 | 52.19331 | 13.35326 | 10793 ft | 280 kts | 91° |
| 2026-05-04 11:35 | 52.19621 | 13.38481 | 11282 ft | 294 kts | 76° |
| 2026-05-04 11:35 | 52.20206 | 13.41765 | 11645 ft | 310 kts | 73° |
| 2026-05-04 11:36 | 52.20853 | 13.45201 | 12012 ft | 325 kts | 73° |
| 2026-05-04 11:36 | 52.21502 | 13.48725 | 12579 ft | 331 kts | 74° |
| 2026-05-04 11:36 | 52.22149 | 13.52345 | 13305 ft | 332 kts | 75° |
| 2026-05-04 11:36 | 52.22780 | 13.55956 | 13976 ft | 334 kts | 75° |
| 2026-05-04 11:37 | 52.23399 | 13.59561 | 14590 ft | 338 kts | 75° |
| 2026-05-04 11:37 | 52.24026 | 13.63244 | 15212 ft | 342 kts | 75° |
| 2026-05-04 11:37 | 52.24668 | 13.67034 | 15852 ft | 345 kts | 76° |
| 2026-05-04 11:37 | 52.25301 | 13.70778 | 16432 ft | 348 kts | 76° |
| 2026-05-04 11:38 | 52.25946 | 13.74600 | 17018 ft | 353 kts | 76° |
| 2026-05-04 11:38 | 52.26599 | 13.78476 | 17618 ft | 356 kts | 76° |
| 2026-05-04 11:38 | 52.27250 | 13.82351 | 18200 ft | 360 kts | 76° |
| 2026-05-04 11:38 | 52.27907 | 13.86269 | 18772 ft | 363 kts | 76° |
| 2026-05-04 11:39 | 52.28570 | 13.90233 | 19334 ft | 366 kts | 76° |
| 2026-05-04 11:39 | 52.29241 | 13.94247 | 19875 ft | 368 kts | 76° |
| 2026-05-04 11:40 | 52.22415 | 14.10960 | 22445 ft | 359 kts | 178° |
| 2026-05-04 11:41 | 52.19891 | 14.11392 | 22899 ft | 363 kts | 178° |
| 2026-05-04 11:41 | 52.17408 | 14.11851 | 23344 ft | 367 kts | 177° |
| 2026-05-04 11:41 | 52.14874 | 14.12345 | 23788 ft | 370 kts | 176° |
| 2026-05-04 11:41 | 52.12306 | 14.12861 | 24227 ft | 373 kts | 176° |
| 2026-05-04 11:42 | 52.09741 | 14.13385 | 24653 ft | 376 kts | 176° |
| 2026-05-04 11:42 | 52.07144 | 14.13919 | 25086 ft | 378 kts | 176° |
| 2026-05-04 11:42 | 52.04546 | 14.14454 | 25511 ft | 381 kts | 176° |
| 2026-05-04 11:42 | 52.01911 | 14.14996 | 25944 ft | 384 kts | 176° |
| 2026-05-04 11:43 | 51.99250 | 14.15544 | 26372 ft | 386 kts | 176° |
| 2026-05-04 11:43 | 51.96577 | 14.16094 | 26790 ft | 389 kts | 176° |
| 2026-05-04 11:43 | 51.93901 | 14.16645 | 27198 ft | 392 kts | 176° |
| 2026-05-04 11:43 | 51.91203 | 14.16890 | 27586 ft | 390 kts | 186° |
| 2026-05-04 11:44 | 51.88543 | 14.16289 | 27983 ft | 387 kts | 197° |
| 2026-05-04 11:44 | 51.85997 | 14.14897 | 28376 ft | 386 kts | 205° |
| 2026-05-04 11:44 | 51.83548 | 14.13208 | 28758 ft | 388 kts | 206° |
| 2026-05-04 11:44 | 51.81059 | 14.11454 | 29129 ft | 390 kts | 207° |
| 2026-05-04 11:45 | 51.78580 | 14.09713 | 29501 ft | 392 kts | 206° |
| 2026-05-04 11:45 | 51.76076 | 14.07965 | 29887 ft | 394 kts | 206° |
| 2026-05-04 11:45 | 51.73574 | 14.06228 | 30265 ft | 396 kts | 206° |
| 2026-05-04 11:45 | 51.71042 | 14.04476 | 30638 ft | 398 kts | 206° |
| 2026-05-04 11:46 | 51.68486 | 14.02712 | 31006 ft | 400 kts | 206° |
| 2026-05-04 11:46 | 51.65928 | 14.00949 | 31341 ft | 402 kts | 206° |
| 2026-05-04 11:46 | 51.63377 | 13.99195 | 31663 ft | 403 kts | 206° |
| 2026-05-04 11:46 | 51.60799 | 13.97425 | 31964 ft | 404 kts | 206° |
| 2026-05-04 11:47 | 51.58236 | 13.95665 | 32244 ft | 406 kts | 207° |
| 2026-05-04 11:47 | 51.55638 | 13.93886 | 32537 ft | 407 kts | 207° |
| 2026-05-04 11:47 | 51.53023 | 13.92098 | 32824 ft | 408 kts | 207° |
| 2026-05-04 11:47 | 51.50406 | 13.90319 | 33102 ft | 410 kts | 206° |
| 2026-05-04 11:48 | 51.47732 | 13.88702 | 33371 ft | 412 kts | 203° |
| 2026-05-04 11:48 | 51.44999 | 13.87321 | 33635 ft | 415 kts | 200° |
| 2026-05-04 11:48 | 51.42205 | 13.86179 | 33889 ft | 418 kts | 197° |
| 2026-05-04 11:48 | 51.39385 | 13.85291 | 34177 ft | 417 kts | 194° |
| 2026-05-04 11:49 | 51.36525 | 13.84474 | 34442 ft | 417 kts | 194° |
| 2026-05-04 11:49 | 51.33682 | 13.83650 | 34691 ft | 418 kts | 195° |
| 2026-05-04 11:49 | 51.30822 | 13.82821 | 34938 ft | 418 kts | 195° |
| 2026-05-04 11:49 | 51.27966 | 13.81995 | 35181 ft | 418 kts | 195° |
| 2026-05-04 11:50 | 51.25119 | 13.81175 | 35419 ft | 418 kts | 195° |
| 2026-05-04 11:50 | 51.22284 | 13.80358 | 35627 ft | 418 kts | 195° |
| 2026-05-04 11:50 | 51.19431 | 13.79537 | 35814 ft | 419 kts | 194° |
| 2026-05-04 11:50 | 51.16570 | 13.78715 | 35975 ft | 420 kts | 194° |
| 2026-05-04 11:51 | 51.13674 | 13.77884 | 36017 ft | 420 kts | 194° |
| 2026-05-04 11:51 | 51.07966 | 13.76251 | 36015 ft | 420 kts | 194° |
| 2026-05-04 11:52 | 51.02242 | 13.74616 | 36012 ft | 420 kts | 194° |
| 2026-05-04 11:52 | 50.96503 | 13.72983 | 35987 ft | 420 kts | 194° |
| 2026-05-04 11:53 | 50.90780 | 13.71332 | 35990 ft | 419 kts | 195° |
| 2026-05-04 11:53 | 50.85152 | 13.69058 | 36004 ft | 418 kts | 200° |
| 2026-05-04 11:55 | 50.61927 | 13.67448 | 35957 ft | 437 kts | 168° |
| 2026-05-04 11:56 | 50.56164 | 13.70161 | 35997 ft | 436 kts | 167° |
| 2026-05-04 11:56 | 50.50355 | 13.72909 | 36012 ft | 436 kts | 167° |
| 2026-05-04 11:57 | 50.44555 | 13.75633 | 36015 ft | 436 kts | 167° |
| 2026-05-04 11:57 | 50.38779 | 13.78334 | 36009 ft | 436 kts | 167° |
| 2026-05-04 11:58 | 50.32988 | 13.81034 | 36007 ft | 436 kts | 167° |
| 2026-05-04 11:58 | 50.27174 | 13.83736 | 36005 ft | 437 kts | 167° |
| 2026-05-04 11:59 | 50.21368 | 13.86427 | 36004 ft | 437 kts | 167° |
| 2026-05-04 11:59 | 50.15555 | 13.89115 | 36002 ft | 437 kts | 167° |
| 2026-05-04 12:00 | 50.09753 | 13.91792 | 36001 ft | 437 kts | 167° |
| 2026-05-04 12:00 | 50.03946 | 13.94463 | 36000 ft | 437 kts | 167° |
| 2026-05-04 12:01 | 49.98097 | 13.97146 | 35999 ft | 437 kts | 167° |
| 2026-05-04 12:02 | 49.77741 | 14.06431 | 36007 ft | 437 kts | 167° |
| 2026-05-04 12:03 | 49.71943 | 14.09058 | 36011 ft | 437 kts | 167° |
| 2026-05-04 12:03 | 49.66108 | 14.11680 | 36012 ft | 437 kts | 168° |
| 2026-05-04 12:04 | 49.60234 | 14.13705 | 36013 ft | 436 kts | 172° |
| 2026-05-04 12:04 | 49.54312 | 14.15533 | 36012 ft | 436 kts | 172° |
| 2026-05-04 12:05 | 49.48384 | 14.17360 | 36012 ft | 436 kts | 172° |
| 2026-05-04 12:05 | 49.42453 | 14.19181 | 36010 ft | 436 kts | 172° |
| 2026-05-04 12:06 | 49.36492 | 14.21005 | 36009 ft | 437 kts | 172° |
| 2026-05-04 12:06 | 49.30563 | 14.22816 | 36009 ft | 437 kts | 172° |
| 2026-05-04 12:07 | 49.24593 | 14.24633 | 36010 ft | 438 kts | 172° |
| 2026-05-04 12:07 | 49.18643 | 14.26436 | 36008 ft | 438 kts | 172° |
| 2026-05-04 12:08 | 49.12681 | 14.28242 | 36004 ft | 439 kts | 172° |
| 2026-05-04 12:08 | 49.06703 | 14.30049 | 35993 ft | 439 kts | 171° |
| 2026-05-04 12:09 | 49.00711 | 14.31854 | 35979 ft | 440 kts | 171° |
| 2026-05-04 12:09 | 48.94722 | 14.33655 | 35972 ft | 441 kts | 172° |
| 2026-05-04 12:10 | 48.88710 | 14.35275 | 35972 ft | 441 kts | 173° |
| 2026-05-04 12:10 | 48.82694 | 14.36840 | 35973 ft | 441 kts | 173° |
| 2026-05-04 12:11 | 48.76648 | 14.37948 | 35972 ft | 440 kts | 179° |
| 2026-05-04 12:11 | 48.70564 | 14.37926 | 35968 ft | 439 kts | 186° |
| 2026-05-04 12:12 | 48.64493 | 14.36748 | 35970 ft | 439 kts | 194° |
| 2026-05-04 12:12 | 48.58557 | 14.34842 | 35977 ft | 439 kts | 195° |
| 2026-05-04 12:14 | 48.34708 | 14.27232 | 35955 ft | 440 kts | 194° |
| 2026-05-04 12:15 | 48.28735 | 14.25341 | 35942 ft | 440 kts | 194° |
| 2026-05-04 12:15 | 48.22761 | 14.23455 | 35933 ft | 440 kts | 194° |
| 2026-05-04 12:16 | 48.16800 | 14.21578 | 35938 ft | 440 kts | 194° |
| 2026-05-04 12:16 | 48.10807 | 14.19695 | 35957 ft | 440 kts | 194° |
| 2026-05-04 12:17 | 48.04868 | 14.17834 | 35981 ft | 440 kts | 194° |
| 2026-05-04 12:17 | 47.98872 | 14.15958 | 35997 ft | 440 kts | 194° |
| 2026-05-04 12:18 | 47.92900 | 14.14095 | 36006 ft | 440 kts | 194° |
| 2026-05-04 12:18 | 47.86907 | 14.12231 | 36018 ft | 440 kts | 194° |
| 2026-05-04 12:19 | 47.80965 | 14.10386 | 36034 ft | 440 kts | 194° |
| 2026-05-04 12:19 | 47.74990 | 14.08535 | 36051 ft | 440 kts | 194° |
| 2026-05-04 12:20 | 47.68992 | 14.06681 | 36067 ft | 440 kts | 194° |
| 2026-05-04 12:20 | 47.63025 | 14.04841 | 36069 ft | 440 kts | 194° |
| 2026-05-04 12:21 | 47.57042 | 14.03005 | 36049 ft | 440 kts | 194° |
| 2026-05-04 12:21 | 47.51054 | 14.01169 | 36014 ft | 440 kts | 194° |
| 2026-05-04 12:22 | 47.45101 | 13.99346 | 35902 ft | 441 kts | 194° |
| 2026-05-04 12:22 | 47.42099 | 13.98428 | 35735 ft | 441 kts | 194° |
| 2026-05-04 12:22 | 47.39101 | 13.97513 | 35499 ft | 441 kts | 194° |
| 2026-05-04 12:23 | 47.36084 | 13.96592 | 35197 ft | 441 kts | 194° |
| 2026-05-04 12:23 | 47.33092 | 13.95681 | 34801 ft | 442 kts | 194° |
| 2026-05-04 12:23 | 47.30083 | 13.94766 | 34445 ft | 442 kts | 194° |
| 2026-05-04 12:23 | 47.27096 | 13.93858 | 34252 ft | 442 kts | 194° |
| 2026-05-04 12:24 | 47.24115 | 13.92954 | 34145 ft | 443 kts | 194° |
| 2026-05-04 12:24 | 47.21096 | 13.92038 | 34104 ft | 443 kts | 194° |
| 2026-05-04 12:24 | 47.15072 | 13.90213 | 34149 ft | 444 kts | 194° |
| 2026-05-04 12:25 | 47.09030 | 13.88388 | 34331 ft | 444 kts | 194° |
| 2026-05-04 12:25 | 47.05962 | 13.87463 | 34487 ft | 445 kts | 194° |
| 2026-05-04 12:25 | 47.02934 | 13.86552 | 34607 ft | 445 kts | 194° |
| 2026-05-04 12:26 | 46.96905 | 13.84739 | 34814 ft | 444 kts | 194° |
| 2026-05-04 12:26 | 46.93865 | 13.83828 | 35128 ft | 440 kts | 194° |
| 2026-05-04 12:26 | 46.90878 | 13.82934 | 35483 ft | 436 kts | 194° |
| 2026-05-04 12:27 | 46.87957 | 13.82059 | 35791 ft | 432 kts | 194° |
| 2026-05-04 12:27 | 46.85020 | 13.81180 | 36055 ft | 432 kts | 194° |
| 2026-05-04 12:27 | 46.82052 | 13.80290 | 36190 ft | 436 kts | 194° |
| 2026-05-04 12:27 | 46.79125 | 13.79414 | 36241 ft | 439 kts | 194° |
| 2026-05-04 12:28 | 46.73111 | 13.77620 | 36197 ft | 439 kts | 194° |
| 2026-05-04 12:28 | 46.67171 | 13.75855 | 36149 ft | 439 kts | 194° |
| 2026-05-04 12:29 | 46.61214 | 13.74084 | 36147 ft | 439 kts | 194° |
| 2026-05-04 12:29 | 46.55230 | 13.72310 | 36137 ft | 439 kts | 194° |
| 2026-05-04 12:30 | 46.49233 | 13.70713 | 36135 ft | 440 kts | 192° |
| 2026-05-04 12:30 | 46.43190 | 13.69262 | 36138 ft | 440 kts | 192° |
| 2026-05-04 12:31 | 46.37195 | 13.67819 | 36137 ft | 441 kts | 192° |
| 2026-05-04 12:31 | 46.31154 | 13.66367 | 36130 ft | 441 kts | 192° |
| 2026-05-04 12:32 | 46.22061 | 13.64186 | 36065 ft | 442 kts | 192° |
| 2026-05-04 12:32 | 46.19060 | 13.63468 | 35806 ft | 441 kts | 192° |
| 2026-05-04 12:33 | 46.16058 | 13.62753 | 35368 ft | 441 kts | 192° |
| 2026-05-04 12:33 | 46.13035 | 13.61966 | 34731 ft | 441 kts | 195° |
| 2026-05-04 12:33 | 46.10066 | 13.60886 | 34029 ft | 442 kts | 199° |
| 2026-05-04 12:33 | 46.07180 | 13.59485 | 33363 ft | 440 kts | 204° |
| 2026-05-04 12:34 | 46.04396 | 13.57775 | 32872 ft | 434 kts | 208° |
| 2026-05-04 12:34 | 46.01736 | 13.55787 | 32282 ft | 426 kts | 213° |
| 2026-05-04 12:34 | 45.99241 | 13.53564 | 31745 ft | 417 kts | 217° |
| 2026-05-04 12:34 | 45.96896 | 13.51192 | 31265 ft | 411 kts | 218° |
| 2026-05-04 12:35 | 45.94606 | 13.48836 | 30808 ft | 410 kts | 218° |
| 2026-05-04 12:35 | 45.92276 | 13.46440 | 30418 ft | 409 kts | 218° |
| 2026-05-04 12:35 | 45.89984 | 13.44091 | 30020 ft | 407 kts | 218° |
| 2026-05-04 12:35 | 45.87706 | 13.41762 | 29605 ft | 405 kts | 218° |
| 2026-05-04 12:36 | 45.85420 | 13.39430 | 29162 ft | 402 kts | 218° |
| 2026-05-04 12:36 | 45.83155 | 13.37124 | 28703 ft | 398 kts | 218° |
| 2026-05-04 12:36 | 45.80940 | 13.34870 | 28256 ft | 395 kts | 217° |
| 2026-05-04 12:36 | 45.78686 | 13.32579 | 27804 ft | 392 kts | 217° |
| 2026-05-04 12:37 | 45.76505 | 13.30365 | 27367 ft | 388 kts | 217° |
| 2026-05-04 12:37 | 45.74314 | 13.28143 | 26917 ft | 384 kts | 217° |
| 2026-05-04 12:37 | 45.72152 | 13.25953 | 26473 ft | 381 kts | 217° |
| 2026-05-04 12:37 | 45.70018 | 13.23792 | 26034 ft | 377 kts | 217° |
| 2026-05-04 12:38 | 45.67873 | 13.21624 | 25592 ft | 374 kts | 217° |
| 2026-05-04 12:38 | 45.65763 | 13.19494 | 25156 ft | 371 kts | 217° |
| 2026-05-04 12:38 | 45.63695 | 13.17410 | 24720 ft | 368 kts | 217° |
| 2026-05-04 12:38 | 45.61598 | 13.15354 | 24282 ft | 365 kts | 216° |
| 2026-05-04 12:39 | 45.59484 | 13.13307 | 23845 ft | 362 kts | 216° |
| 2026-05-04 12:39 | 45.57436 | 13.11325 | 23425 ft | 360 kts | 216° |
| 2026-05-04 12:39 | 45.55365 | 13.09319 | 22998 ft | 357 kts | 216° |
| 2026-05-04 12:39 | 45.53327 | 13.07342 | 22572 ft | 355 kts | 216° |
| 2026-05-04 12:40 | 45.51301 | 13.05377 | 22145 ft | 352 kts | 216° |
| 2026-05-04 12:40 | 45.49271 | 13.03412 | 21727 ft | 349 kts | 216° |
| 2026-05-04 12:40 | 45.47301 | 13.01506 | 21317 ft | 347 kts | 215° |
| 2026-05-04 12:40 | 45.45302 | 12.99573 | 20894 ft | 345 kts | 215° |
| 2026-05-04 12:41 | 45.43334 | 12.97675 | 20476 ft | 342 kts | 215° |
| 2026-05-04 12:41 | 45.41392 | 12.95803 | 20058 ft | 340 kts | 215° |
| 2026-05-04 12:41 | 45.39445 | 12.93928 | 19638 ft | 338 kts | 215° |
| 2026-05-04 12:41 | 45.37536 | 12.92091 | 19224 ft | 334 kts | 215° |
| 2026-05-04 12:42 | 45.35611 | 12.90239 | 18807 ft | 332 kts | 214° |
| 2026-05-04 12:42 | 45.33707 | 12.88410 | 18394 ft | 330 kts | 215° |
| 2026-05-04 12:42 | 45.31928 | 12.86385 | 17974 ft | 328 kts | 225° |
| 2026-05-04 12:42 | 45.30474 | 12.83966 | 17563 ft | 326 kts | 235° |
| 2026-05-04 12:43 | 45.29269 | 12.81234 | 17153 ft | 325 kts | 239° |
| 2026-05-04 12:43 | 45.28104 | 12.78550 | 16744 ft | 321 kts | 236° |
| 2026-05-04 12:43 | 45.26820 | 12.75952 | 16335 ft | 320 kts | 234° |
| 2026-05-04 12:43 | 45.25535 | 12.73409 | 15929 ft | 318 kts | 233° |
| 2026-05-04 12:44 | 45.24261 | 12.70902 | 15528 ft | 317 kts | 233° |
| 2026-05-04 12:44 | 45.22971 | 12.68371 | 15120 ft | 316 kts | 233° |
| 2026-05-04 12:44 | 45.21698 | 12.65877 | 14717 ft | 312 kts | 233° |
| 2026-05-04 12:44 | 45.20434 | 12.63403 | 14319 ft | 311 kts | 233° |
| 2026-05-04 12:45 | 45.19168 | 12.60928 | 13919 ft | 310 kts | 233° |
| 2026-05-04 12:45 | 45.17899 | 12.58453 | 13520 ft | 309 kts | 233° |
| 2026-05-04 12:45 | 45.16642 | 12.56002 | 13123 ft | 307 kts | 233° |
| 2026-05-04 12:45 | 45.15396 | 12.53575 | 12730 ft | 306 kts | 233° |
| 2026-05-04 12:46 | 45.14238 | 12.51109 | 12317 ft | 305 kts | 244° |
| 2026-05-04 12:46 | 45.13781 | 12.48198 | 11932 ft | 306 kts | 270° |
| 2026-05-04 12:46 | 45.14217 | 12.45284 | 11921 ft | 311 kts | 288° |
| 2026-05-04 12:46 | 45.14982 | 12.42452 | 11931 ft | 312 kts | 290° |
| 2026-05-04 12:47 | 45.15769 | 12.39590 | 11936 ft | 313 kts | 289° |
| 2026-05-04 12:47 | 45.16548 | 12.36706 | 11726 ft | 313 kts | 289° |
| 2026-05-04 12:47 | 45.17303 | 12.33866 | 11344 ft | 311 kts | 288° |
| 2026-05-04 12:47 | 45.18052 | 12.31020 | 10958 ft | 309 kts | 288° |
| 2026-05-04 12:48 | 45.18788 | 12.28184 | 10570 ft | 307 kts | 286° |
| 2026-05-04 12:48 | 45.19222 | 12.25256 | 10217 ft | 301 kts | 272° |
| 2026-05-04 12:48 | 45.19207 | 12.22374 | 10096 ft | 286 kts | 264° |
| 2026-05-04 12:48 | 45.19058 | 12.19622 | 9824 ft | 281 kts | 263° |
| 2026-05-04 12:49 | 45.18890 | 12.16866 | 9466 ft | 279 kts | 263° |
| 2026-05-04 12:49 | 45.18731 | 12.14136 | 9215 ft | 272 kts | 264° |
| 2026-05-04 12:49 | 45.18543 | 12.11547 | 9114 ft | 261 kts | 255° |
| 2026-05-04 12:49 | 45.17767 | 12.09293 | 9037 ft | 251 kts | 228° |
| 2026-05-04 12:50 | 45.16500 | 12.07609 | 9063 ft | 254 kts | 220° |
| 2026-05-04 12:50 | 45.15155 | 12.05963 | 9079 ft | 255 kts | 220° |
| 2026-05-04 12:50 | 45.13821 | 12.04319 | 9087 ft | 255 kts | 221° |
| 2026-05-04 12:50 | 45.12488 | 12.02659 | 9090 ft | 256 kts | 221° |
| 2026-05-04 12:51 | 45.11156 | 12.00989 | 9091 ft | 256 kts | 221° |
| 2026-05-04 12:51 | 45.09819 | 11.99309 | 9093 ft | 256 kts | 221° |
| 2026-05-04 12:51 | 45.08497 | 11.97646 | 9038 ft | 254 kts | 221° |
| 2026-05-04 12:51 | 45.07167 | 11.95973 | 9062 ft | 256 kts | 221° |
| 2026-05-04 12:52 | 45.05842 | 11.94307 | 9081 ft | 256 kts | 221° |
| 2026-05-04 12:52 | 45.04519 | 11.92647 | 9089 ft | 256 kts | 221° |
| 2026-05-04 12:52 | 45.03171 | 11.90957 | 9092 ft | 257 kts | 221° |
| 2026-05-04 12:52 | 45.01846 | 11.89279 | 9112 ft | 254 kts | 224° |
| 2026-05-04 12:53 | 45.00936 | 11.87264 | 9048 ft | 242 kts | 257° |
| 2026-05-04 12:53 | 45.01064 | 11.84954 | 9072 ft | 242 kts | 292° |
| 2026-05-04 12:53 | 45.02050 | 11.83005 | 9094 ft | 245 kts | 311° |
| 2026-05-04 12:53 | 45.03227 | 11.81271 | 9095 ft | 245 kts | 311° |
| 2026-05-04 12:54 | 45.04543 | 11.79752 | 9077 ft | 248 kts | 336° |
| 2026-05-04 12:54 | 45.06232 | 11.79458 | 8952 ft | 253 kts | 12° |
| 2026-05-04 12:54 | 45.07772 | 11.80586 | 8613 ft | 253 kts | 43° |
| 2026-05-04 12:54 | 45.09039 | 11.82313 | 8315 ft | 251 kts | 45° |
| 2026-05-04 12:55 | 45.10302 | 11.84016 | 8021 ft | 251 kts | 43° |
| 2026-05-04 12:55 | 45.11576 | 11.85674 | 7732 ft | 250 kts | 43° |
| 2026-05-04 12:55 | 45.12869 | 11.87323 | 7441 ft | 249 kts | 42° |
| 2026-05-04 12:55 | 45.14145 | 11.88934 | 7155 ft | 248 kts | 42° |
| 2026-05-04 12:56 | 45.15433 | 11.90555 | 6865 ft | 245 kts | 42° |
| 2026-05-04 12:56 | 45.16692 | 11.92141 | 6583 ft | 242 kts | 42° |
| 2026-05-04 12:56 | 45.17937 | 11.93707 | 6309 ft | 239 kts | 42° |
| 2026-05-04 12:56 | 45.19181 | 11.95271 | 6040 ft | 238 kts | 42° |
| 2026-05-04 12:57 | 45.20408 | 11.96818 | 5775 ft | 238 kts | 42° |
| 2026-05-04 12:57 | 45.21643 | 11.98376 | 5506 ft | 235 kts | 42° |
| 2026-05-04 12:57 | 45.22865 | 11.99915 | 5238 ft | 235 kts | 42° |
| 2026-05-04 12:57 | 45.24082 | 12.01449 | 4969 ft | 234 kts | 42° |
| 2026-05-04 12:58 | 45.25287 | 12.02970 | 4703 ft | 232 kts | 42° |
| 2026-05-04 12:58 | 45.26483 | 12.04481 | 4439 ft | 231 kts | 42° |
| 2026-05-04 12:58 | 45.27697 | 12.06013 | 4171 ft | 232 kts | 42° |
| 2026-05-04 12:58 | 45.28894 | 12.07475 | 3910 ft | 230 kts | 40° |
| 2026-05-04 12:59 | 45.30118 | 12.08943 | 3645 ft | 230 kts | 41° |
| 2026-05-04 12:59 | 45.31313 | 12.10413 | 3384 ft | 229 kts | 41° |
| 2026-05-04 12:59 | 45.32507 | 12.11921 | 3119 ft | 227 kts | 43° |
| 2026-05-04 12:59 | 45.33653 | 12.13394 | 2994 ft | 224 kts | 43° |
| 2026-05-04 13:00 | 45.34811 | 12.14896 | 2990 ft | 226 kts | 43° |
| 2026-05-04 13:00 | 45.35966 | 12.16398 | 2996 ft | 226 kts | 43° |
| 2026-05-04 13:00 | 45.37123 | 12.17902 | 3000 ft | 226 kts | 43° |
| 2026-05-04 13:00 | 45.38281 | 12.19404 | 2875 ft | 224 kts | 43° |
| 2026-05-04 13:01 | 45.39431 | 12.20894 | 2601 ft | 225 kts | 43° |
| 2026-05-04 13:01 | 45.40586 | 12.22387 | 2309 ft | 224 kts | 43° |
| 2026-05-04 13:01 | 45.41710 | 12.23837 | 2007 ft | 212 kts | 43° |
| 2026-05-04 13:01 | 45.42768 | 12.25202 | 1736 ft | 202 kts | 43° |
| 2026-05-04 13:02 | 45.43770 | 12.26493 | 1548 ft | 188 kts | 43° |
| 2026-05-04 13:02 | 45.44724 | 12.27721 | 1263 ft | 180 kts | 43° |
| 2026-05-04 13:02 | 45.45615 | 12.28870 | 1028 ft | 169 kts | 43° |
| 2026-05-04 13:02 | 45.46469 | 12.29970 | 788 ft | 160 kts | 43° |
| 2026-05-04 13:03 | 45.47263 | 12.30992 | 578 ft | 148 kts | 44° |
| 2026-05-04 13:03 | 45.47991 | 12.31934 | 390 ft | 139 kts | 44° |
| 2026-05-04 13:03 | 45.48695 | 12.32851 | 222 ft | 138 kts | 44° |
| 2026-05-04 13:03 | 45.49409 | 12.33763 | 55 ft | 137 kts | 44° |
| 2026-05-04 13:04 | 45.50074 | 12.34626 | 13 ft | 111 kts | 41° |
| 2026-05-04 13:04 | 45.50517 | 12.35192 | 12 ft | 59 kts | 43° |
| 2026-05-04 13:04 | 45.50689 | 12.35385 | 13 ft | 19 kts | 19° |
| 2026-05-04 13:04 | 45.50824 | 12.35428 | 13 ft | 19 kts | 11° |
| 2026-05-04 13:05 | 45.50974 | 12.35427 | 13 ft | 12 kts | 306° |
| 2026-05-04 13:05 | 45.50977 | 12.35345 | 13 ft | 13 kts | 260° |
| 2026-05-04 13:05 | 45.50951 | 12.35210 | 12 ft | 14 kts | 238° |
| 2026-05-04 13:05 | 45.50875 | 12.35101 | 12 ft | 15 kts | 221° |
| 2026-05-04 13:06 | 45.50791 | 12.34995 | 12 ft | 16 kts | 221° |
| 2026-05-04 13:06 | 45.50705 | 12.34888 | 12 ft | 16 kts | 224° |
| 2026-05-04 13:06 | 45.50623 | 12.34771 | 12 ft | 16 kts | 236° |
| 2026-05-04 13:06 | 45.50601 | 12.34604 | 12 ft | 17 kts | 265° |
| 2026-05-04 13:07 | 45.50595 | 12.34444 | 12 ft | 12 kts | 272° |
| 2026-05-04 13:07 | 45.50642 | 12.34336 | 12 ft | 13 kts | 311° |
| 2026-05-04 13:07 | 45.50707 | 12.34234 | 12 ft | 13 kts | 311° |
| 2026-05-04 13:07 | 45.50772 | 12.34125 | 11 ft | 13 kts | 303° |
| 2026-05-04 13:08 | 45.50783 | 12.34056 | 11 ft | 6 kts | 244° |
| 2026-05-04 13:08 | 45.50756 | 12.34016 | 11 ft | 3 kts | 223° |
| 2026-05-04 13:08 | 45.50747 | 12.34004 | 11 ft | 0 kts | 225° |